Time;durP1;ratioP1;P1;durP2;ratioP2;P2;SDS_P1;SDS_P2;PMS_P1;PMS_P2;Temp;Humidity;BMP_temperature;BMP_pressure;BME280_temperature;BME280_humidity;BME280_pressure;Samples;Min_cycle;Max_cycle;Signal;HPM_P1;HPM_P2
2023/05/25 00:00:28;;;;;;;17.83;14.68;;;16.30;99.90;;;;;;5048068;28;20076;-79
2023/05/25 00:02:55;;;;;;;16.10;14.40;;;16.30;99.90;;;;;;5032638;28;20041;-80
2023/05/25 00:05:26;;;;;;;22.30;14.93;;;16.30;99.90;;;;;;5051646;28;20115;-79
2023/05/25 00:07:54;;;;;;;16.30;14.60;;;16.20;99.90;;;;;;5049543;28;20120;-77
2023/05/25 00:10:22;;;;;;;17.58;14.25;;;16.20;99.90;;;;;;5027991;28;20511;-78
2023/05/25 00:12:51;;;;;;;17.05;13.63;;;16.20;99.90;;;;;;5053627;28;20036;-80
2023/05/25 00:15:19;;;;;;;16.88;13.50;;;16.20;99.90;;;;;;5053724;28;20656;-76
2023/05/25 00:17:47;;;;;;;15.82;14.00;;;16.20;99.90;;;;;;5048353;28;20041;-77
2023/05/25 00:20:15;;;;;;;16.55;14.35;;;16.20;99.90;;;;;;5029366;28;20102;-77
2023/05/25 00:22:44;;;;;;;19.10;14.52;;;16.20;99.90;;;;;;5047891;28;20546;-78
2023/05/25 00:25:13;;;;;;;19.83;14.55;;;16.20;99.90;;;;;;5049240;28;20099;-77
2023/05/25 00:27:40;;;;;;;16.92;14.98;;;16.20;99.90;;;;;;5048522;28;20063;-78
2023/05/25 00:30:10;;;;;;;20.58;15.45;;;16.20;99.90;;;;;;5047017;28;20049;-79
2023/05/25 00:32:37;;;;;;;18.15;15.13;;;16.20;99.90;;;;;;5047496;28;20049;-79
2023/05/25 00:35:05;;;;;;;20.38;15.60;;;16.20;99.90;;;;;;5054646;28;20045;-78
2023/05/25 00:37:32;;;;;;;17.70;15.70;;;16.10;99.90;;;;;;5048527;28;20057;-78
2023/05/25 00:40:00;;;;;;;16.77;15.00;;;16.10;99.90;;;;;;5048055;28;20071;-79
2023/05/25 00:42:29;;;;;;;21.08;16.48;;;16.10;99.90;;;;;;5051785;28;20136;-79
2023/05/25 00:44:56;;;;;;;16.80;14.75;;;16.10;99.90;;;;;;5057133;28;20481;-80
2023/05/25 00:47:26;;;;;;;17.67;15.75;;;16.00;99.90;;;;;;5045199;28;20053;-78
2023/05/25 00:49:53;;;;;;;17.85;15.68;;;16.00;99.90;;;;;;5044767;28;20518;-79
2023/05/25 00:52:21;;;;;;;21.52;16.73;;;15.90;99.90;;;;;;5029217;28;20068;-78
2023/05/25 00:54:51;;;;;;;18.77;16.73;;;15.90;99.90;;;;;;5045514;28;20132;-77
2023/05/25 00:57:23;;;;;;;18.70;16.70;;;15.80;99.90;;;;;;5029762;28;20049;-79
2023/05/25 00:59:54;;;;;;;18.05;14.63;;;15.70;99.90;;;;;;5048631;28;20094;-77
2023/05/25 01:02:23;;;;;;;21.23;17.23;;;15.60;99.90;;;;;;5051472;28;20393;-79
2023/05/25 01:04:54;;;;;;;21.15;16.30;;;15.60;99.90;;;;;;5051440;28;20045;-77
2023/05/25 01:07:24;;;;;;;17.25;15.00;;;15.50;99.90;;;;;;5050848;28;20041;-77
2023/05/25 01:09:57;;;;;;;19.77;16.10;;;15.40;99.90;;;;;;5050301;28;20554;-76
2023/05/25 01:12:28;;;;;;;18.13;15.45;;;15.40;99.90;;;;;;5050237;28;20063;-78
2023/05/25 01:14:56;;;;;;;18.45;15.65;;;15.40;99.90;;;;;;5054363;28;20048;-79
2023/05/25 01:17:27;;;;;;;17.90;16.00;;;15.40;99.90;;;;;;5047477;28;20258;-79
2023/05/25 01:19:57;;;;;;;19.75;15.65;;;15.30;99.90;;;;;;5065010;28;20045;-77
2023/05/25 01:22:31;;;;;;;18.10;16.20;;;15.30;99.90;;;;;;5036809;28;20144;-77
2023/05/25 01:25:03;;;;;;;21.27;16.40;;;15.30;99.90;;;;;;5041474;28;20041;-77
2023/05/25 01:27:37;;;;;;;18.05;15.98;;;15.20;99.90;;;;;;5028402;28;20046;-77
2023/05/25 01:30:10;;;;;;;17.77;15.35;;;15.20;99.90;;;;;;5038919;28;20049;-78
2023/05/25 01:32:38;;;;;;;18.30;15.70;;;15.20;99.90;;;;;;5025116;28;20889;-79
2023/05/25 01:35:09;;;;;;;21.40;16.63;;;15.10;99.90;;;;;;5013870;28;20485;-78
2023/05/25 01:37:38;;;;;;;20.83;16.88;;;15.20;99.90;;;;;;5038485;28;20053;-78
2023/05/25 01:40:07;;;;;;;18.85;15.55;;;15.10;99.90;;;;;;5047541;28;20409;-80
2023/05/25 01:42:34;;;;;;;18.58;16.65;;;15.10;99.90;;;;;;5043944;28;20445;-79
2023/05/25 01:45:06;;;;;;;22.15;17.65;;;15.00;99.90;;;;;;5038806;28;20050;-78
2023/05/25 01:47:42;;;;;;;20.33;16.80;;;15.00;99.90;;;;;;5047630;28;20056;-78
2023/05/25 01:50:19;;;;;;;20.60;16.85;;;15.00;99.90;;;;;;5029326;28;20045;-79
2023/05/25 01:52:56;;;;;;;18.80;16.50;;;15.00;99.90;;;;;;5043730;28;20064;-79
2023/05/25 01:55:27;;;;;;;20.27;16.23;;;15.00;99.90;;;;;;5012389;28;20037;-79
2023/05/25 01:57:58;;;;;;;19.70;16.60;;;14.90;99.90;;;;;;5014039;28;20044;-79
2023/05/25 02:00:30;;;;;;;21.15;16.95;;;14.80;99.90;;;;;;5013843;28;20654;-79
2023/05/25 02:02:58;;;;;;;19.08;16.95;;;14.80;99.90;;;;;;5017776;28;20093;-78
2023/05/25 02:05:26;;;;;;;23.25;17.83;;;14.70;99.90;;;;;;5030834;28;20037;-78
2023/05/25 02:07:55;;;;;;;19.73;16.98;;;14.70;99.90;;;;;;5035490;28;20436;-80
2023/05/25 02:10:23;;;;;;;20.63;18.27;;;14.70;99.90;;;;;;5032611;28;20103;-79
2023/05/25 02:12:51;;;;;;;20.23;16.67;;;14.70;99.90;;;;;;5026267;28;20046;-80
2023/05/25 02:15:19;;;;;;;19.00;16.08;;;14.70;99.90;;;;;;5018376;28;20490;-79
2023/05/25 02:17:47;;;;;;;22.02;17.17;;;14.70;99.90;;;;;;5017418;28;20371;-77
2023/05/25 02:20:14;;;;;;;23.10;17.38;;;14.60;99.90;;;;;;5030099;28;20118;-77
2023/05/25 02:22:42;;;;;;;18.08;15.82;;;14.60;99.90;;;;;;5043858;28;20045;-77
2023/05/25 02:25:11;;;;;;;20.00;16.98;;;14.60;99.90;;;;;;5050540;28;20131;-78
2023/05/25 02:27:39;;;;;;;20.50;17.85;;;14.60;99.90;;;;;;5046902;28;20037;-79
2023/05/25 02:30:08;;;;;;;21.15;18.17;;;14.60;99.90;;;;;;5030537;28;20044;-79
2023/05/25 02:32:36;;;;;;;20.88;18.00;;;14.50;99.90;;;;;;5046789;28;20052;-77
2023/05/25 02:35:04;;;;;;;23.58;17.88;;;14.40;99.90;;;;;;5031932;28;20037;-80
2023/05/25 02:37:32;;;;;;;20.52;17.20;;;14.40;99.90;;;;;;5047747;28;20048;-79
2023/05/25 02:39:59;;;;;;;20.83;17.55;;;14.30;99.90;;;;;;5049698;28;20056;-77
2023/05/25 02:42:28;;;;;;;19.48;17.48;;;14.30;99.90;;;;;;5047265;28;20044;-79
2023/05/25 02:44:56;;;;;;;20.35;17.08;;;14.30;99.90;;;;;;5048875;28;20037;-79
2023/05/25 02:47:23;;;;;;;19.15;16.98;;;14.30;99.90;;;;;;5032189;28;20040;-79
2023/05/25 02:49:51;;;;;;;20.52;16.25;;;14.30;99.90;;;;;;5048204;28;20524;-79
2023/05/25 02:52:19;;;;;;;23.70;16.63;;;14.20;99.90;;;;;;5049073;28;20045;-79
2023/05/25 02:54:46;;;;;;;22.00;18.27;;;14.20;99.90;;;;;;5031659;28;20087;-79
2023/05/25 02:57:20;;;;;;;20.45;16.45;;;14.20;99.90;;;;;;5032009;28;20448;-79
2023/05/25 02:59:49;;;;;;;18.88;16.92;;;14.20;99.90;;;;;;5047266;28;20033;-78
2023/05/25 03:02:19;;;;;;;20.77;17.48;;;14.20;99.90;;;;;;5047900;28;20053;-77
2023/05/25 03:04:48;;;;;;;21.05;18.10;;;14.20;99.90;;;;;;5048744;28;20037;-79
2023/05/25 03:07:16;;;;;;;21.25;17.88;;;14.30;99.90;;;;;;5048210;28;20197;-78
2023/05/25 03:09:43;;;;;;;19.58;16.80;;;14.30;99.90;;;;;;5049235;28;20055;-79
2023/05/25 03:12:11;;;;;;;21.08;17.67;;;14.30;99.90;;;;;;5038857;28;20052;-79
2023/05/25 03:14:38;;;;;;;21.70;17.67;;;14.30;99.90;;;;;;5029154;28;20190;-79
2023/05/25 03:17:09;;;;;;;24.73;19.23;;;14.30;99.90;;;;;;5029741;28;20064;-78
2023/05/25 03:19:37;;;;;;;22.48;17.65;;;14.30;99.90;;;;;;5030359;28;20053;-77
2023/05/25 03:22:05;;;;;;;21.83;18.83;;;14.20;99.90;;;;;;5030045;28;20053;-77
2023/05/25 03:24:34;;;;;;;23.10;18.75;;;14.30;99.90;;;;;;5038454;28;20504;-78
2023/05/25 03:27:03;;;;;;;24.92;18.70;;;14.30;99.90;;;;;;5045535;28;20055;-78
2023/05/25 03:29:31;;;;;;;24.45;17.45;;;14.40;99.90;;;;;;5047019;28;20140;-77
2023/05/25 03:31:59;;;;;;;24.52;18.33;;;14.40;99.90;;;;;;5048400;28;20116;-78
2023/05/25 03:34:29;;;;;;;25.48;20.02;;;14.40;99.90;;;;;;5048274;28;20044;-79
2023/05/25 03:36:57;;;;;;;23.63;19.08;;;14.50;99.90;;;;;;5030275;28;20044;-78
2023/05/25 03:39:24;;;;;;;23.73;18.77;;;14.60;99.90;;;;;;5029762;28;20049;-78
2023/05/25 03:41:54;;;;;;;22.52;18.40;;;14.70;99.90;;;;;;5029560;28;20132;-78
2023/05/25 03:44:22;;;;;;;19.58;16.98;;;14.70;99.90;;;;;;5037726;28;20095;-79
2023/05/25 03:46:50;;;;;;;24.25;16.52;;;14.80;99.90;;;;;;5047323;28;20041;-78
2023/05/25 03:49:17;;;;;;;19.58;16.77;;;14.90;99.90;;;;;;5027471;28;20147;-77
2023/05/25 03:51:46;;;;;;;18.45;16.40;;;15.00;99.90;;;;;;5048341;28;20595;-79
2023/05/25 03:54:14;;;;;;;19.55;16.98;;;15.20;99.90;;;;;;5046806;28;20178;-77
2023/05/25 03:56:41;;;;;;;21.27;16.50;;;15.20;99.90;;;;;;5046620;28;20068;-78
2023/05/25 03:59:09;;;;;;;18.65;16.20;;;15.40;99.90;;;;;;5030047;28;20052;-79
2023/05/25 04:01:37;;;;;;;19.88;16.67;;;15.50;99.90;;;;;;5029623;28;20251;-79
2023/05/25 04:04:06;;;;;;;22.35;16.60;;;15.60;99.90;;;;;;5047988;28;20119;-76
2023/05/25 04:06:35;;;;;;;21.05;17.23;;;15.90;99.90;;;;;;5029215;28;20045;-79
2023/05/25 04:09:05;;;;;;;20.23;16.63;;;16.20;99.90;;;;;;5047267;28;20372;-79
2023/05/25 04:11:34;;;;;;;21.27;17.52;;;16.40;99.90;;;;;;5047082;28;20091;-77
2023/05/25 04:14:01;;;;;;;21.50;16.58;;;16.40;99.90;;;;;;5048784;28;20576;-78
2023/05/25 04:16:31;;;;;;;21.73;17.52;;;16.30;99.90;;;;;;5029845;28;20700;-76
2023/05/25 04:18:59;;;;;;;21.33;18.15;;;16.20;99.90;;;;;;5029412;28;20062;-77
2023/05/25 04:21:27;;;;;;;23.25;18.67;;;16.10;99.90;;;;;;5029222;28;20441;-76
2023/05/25 04:23:54;;;;;;;27.98;19.52;;;16.10;99.90;;;;;;5028954;28;20041;-77
2023/05/25 04:26:25;;;;;;;25.58;20.83;;;16.00;99.90;;;;;;5046288;28;20072;-77
2023/05/25 04:28:54;;;;;;;27.88;21.30;;;16.10;99.90;;;;;;5030306;28;20076;-78
2023/05/25 04:31:42;;;;;;;28.63;21.30;;;16.10;99.90;;;;;;5052549;28;20057;-79
2023/05/25 04:34:28;;;;;;;23.55;17.95;;;16.20;99.90;;;;;;5035811;28;20051;-79
2023/05/25 04:37:22;;;;;;;20.75;16.38;;;16.30;99.90;;;;;;5044480;28;20033;-78
2023/05/25 04:39:50;;;;;;;18.40;15.48;;;16.30;99.90;;;;;;5047766;28;20509;-78
2023/05/25 04:42:22;;;;;;;19.15;15.13;;;16.30;99.90;;;;;;5029877;28;20041;-78
2023/05/25 04:44:52;;;;;;;20.55;15.43;;;16.20;99.90;;;;;;5046488;28;20048;-79
2023/05/25 04:47:19;;;;;;;18.20;16.13;;;16.30;99.90;;;;;;5030640;28;20037;-78
2023/05/25 04:49:47;;;;;;;20.38;16.50;;;16.40;99.90;;;;;;5056071;28;20071;-78
2023/05/25 04:52:14;;;;;;;19.67;17.63;;;16.40;99.90;;;;;;5049121;28;20148;-78
2023/05/25 04:54:42;;;;;;;22.92;17.02;;;16.50;99.90;;;;;;5041214;28;20094;-78
2023/05/25 04:57:10;;;;;;;17.70;15.82;;;16.80;99.90;;;;;;5029000;28;20055;-77
2023/05/25 04:59:39;;;;;;;20.92;16.27;;;17.10;99.90;;;;;;5046075;28;20094;-77
2023/05/25 05:02:07;;;;;;;16.83;15.05;;;17.40;99.90;;;;;;5029801;28;20052;-79
2023/05/25 05:04:36;;;;;;;19.23;15.45;;;17.60;99.90;;;;;;5029181;28;20451;-77
2023/05/25 05:07:04;;;;;;;17.92;15.68;;;17.80;99.90;;;;;;5047792;28;20083;-77
2023/05/25 05:09:31;;;;;;;18.10;14.60;;;17.90;99.90;;;;;;5046009;28;20702;-79
2023/05/25 05:12:01;;;;;;;22.70;16.95;;;18.10;99.90;;;;;;5029034;28;20041;-77
2023/05/25 05:14:31;;;;;;;19.52;15.75;;;18.20;99.90;;;;;;5029121;28;20048;-79
2023/05/25 05:17:00;;;;;;;22.65;16.90;;;18.30;99.90;;;;;;5029807;28;20041;-77
2023/05/25 05:19:28;;;;;;;22.15;15.93;;;18.70;99.90;;;;;;5053226;28;20109;-78
2023/05/25 05:21:56;;;;;;;23.10;17.17;;;19.10;99.90;;;;;;5047680;28;20041;-79
2023/05/25 05:24:26;;;;;;;23.75;20.35;;;19.60;99.90;;;;;;5059228;28;20037;-79
2023/05/25 05:26:53;;;;;;;23.50;13.57;;;20.40;99.90;;;;;;5032545;28;20056;-79
2023/05/25 05:29:21;;;;;;;15.82;13.38;;;21.20;99.90;;;;;;5046629;28;20133;-78
2023/05/25 05:31:49;;;;;;;15.90;14.00;;;22.30;99.90;;;;;;5029486;28;20475;-77
2023/05/25 05:34:18;;;;;;;15.45;13.85;;;23.10;99.90;;;;;;5029343;28;20507;-76
2023/05/25 05:36:45;;;;;;;19.05;13.60;;;23.90;99.90;;;;;;5048122;28;20484;-79
2023/05/25 05:39:13;;;;;;;14.30;12.70;;;23.90;99.90;;;;;;5029377;28;20048;-75
2023/05/25 05:41:44;;;;;;;19.85;14.52;;;23.30;99.90;;;;;;5028401;28;20049;-78
2023/05/25 05:44:12;;;;;;;18.75;15.70;;;23.00;99.90;;;;;;5028322;28;20135;-77
2023/05/25 05:46:39;;;;;;;19.17;17.17;;;22.40;99.90;;;;;;5046083;28;20041;-77
2023/05/25 05:49:07;;;;;;;20.58;16.38;;;22.10;99.90;;;;;;5050437;28;20037;-79
2023/05/25 05:51:35;;;;;;;20.00;16.08;;;21.60;99.90;;;;;;5051172;28;20048;-76
2023/05/25 05:54:03;;;;;;;20.23;17.02;;;21.70;99.90;;;;;;5048031;28;20049;-78
2023/05/25 05:56:31;;;;;;;20.75;16.52;;;21.50;99.90;;;;;;5049215;28;20073;-78
2023/05/25 05:58:58;;;;;;;22.77;16.58;;;21.20;99.90;;;;;;5049506;28;20049;-80
2023/05/25 06:01:26;;;;;;;23.70;18.85;;;21.10;99.90;;;;;;5032891;28;20052;-77
2023/05/25 06:03:54;;;;;;;23.45;19.10;;;21.10;99.90;;;;;;5032684;28;20052;-79
2023/05/25 06:06:22;;;;;;;31.38;21.50;;;20.90;99.90;;;;;;5051400;28;20041;-78
2023/05/25 06:08:51;;;;;;;27.15;21.92;;;20.80;99.90;;;;;;5034024;28;20053;-77
2023/05/25 06:11:18;;;;;;;29.08;22.55;;;20.50;99.90;;;;;;5051234;28;20045;-79
2023/05/25 06:13:46;;;;;;;27.48;22.90;;;20.50;99.90;;;;;;5051286;28;20041;-78
2023/05/25 06:16:15;;;;;;;29.13;23.23;;;20.50;99.90;;;;;;5049238;28;20045;-79
2023/05/25 06:18:42;;;;;;;28.98;23.48;;;20.60;99.90;;;;;;5032180;28;20037;-78
2023/05/25 06:21:10;;;;;;;30.98;23.55;;;20.60;99.90;;;;;;5032083;28;20052;-79
2023/05/25 06:23:38;;;;;;;30.90;24.40;;;20.60;99.90;;;;;;5058355;28;20071;-79
2023/05/25 06:26:07;;;;;;;33.42;25.00;;;20.60;99.90;;;;;;5032826;28;20049;-80
2023/05/25 06:28:35;;;;;;;34.17;26.38;;;20.80;99.90;;;;;;5049058;28;20485;-79
2023/05/25 06:31:03;;;;;;;41.50;28.35;;;21.10;99.90;;;;;;5055273;28;20041;-78
2023/05/25 06:33:31;;;;;;;36.63;26.40;;;21.50;99.90;;;;;;5057195;28;20451;-77
2023/05/25 06:36:00;;;;;;;35.47;27.48;;;21.70;99.90;;;;;;5050090;28;20056;-77
2023/05/25 06:38:29;;;;;;;33.80;24.98;;;21.90;99.90;;;;;;5044997;28;20056;-78
2023/05/25 06:41:01;;;;;;;34.13;24.67;;;22.00;99.90;;;;;;5071281;28;20064;-77
2023/05/25 06:43:31;;;;;;;35.40;27.25;;;21.90;99.90;;;;;;5062870;28;20044;-77
2023/05/25 06:46:16;;;;;;;32.03;24.23;;;21.90;99.90;;;;;;5047175;28;20052;-79
2023/05/25 06:48:45;;;;;;;30.83;22.75;;;21.80;99.90;;;;;;5049582;28;20041;-76
2023/05/25 06:51:12;;;;;;;35.42;24.35;;;21.60;99.90;;;;;;5020174;28;20067;-78
2023/05/25 06:53:40;;;;;;;35.47;23.98;;;21.50;99.90;;;;;;5041116;28;20118;-79
2023/05/25 06:56:07;;;;;;;27.65;22.42;;;21.70;99.90;;;;;;5040592;28;20065;-77
2023/05/25 06:58:36;;;;;;;30.58;23.00;;;21.90;99.90;;;;;;5039394;28;20060;-76
2023/05/25 07:01:04;;;;;;;25.00;19.83;;;22.20;99.90;;;;;;5037684;28;20049;-77
2023/05/25 07:03:32;;;;;;;29.23;21.35;;;22.40;99.90;;;;;;5036243;28;20042;-78
2023/05/25 07:06:00;;;;;;;35.65;27.65;;;22.60;99.90;;;;;;5039125;28;20072;-76
2023/05/25 07:08:27;;;;;;;31.58;22.88;;;22.70;99.90;;;;;;5047229;28;20499;-76
2023/05/25 07:10:55;;;;;;;27.45;23.33;;;23.00;99.90;;;;;;5051647;28;20567;-77
2023/05/25 07:13:23;;;;;;;23.20;16.42;;;23.40;99.90;;;;;;5050175;28;20041;-78
2023/05/25 07:15:52;;;;;;;24.17;16.48;;;23.80;99.90;;;;;;5051455;28;20051;-77
2023/05/25 07:18:20;;;;;;;24.48;15.98;;;24.40;99.90;;;;;;5047262;28;20080;-76
2023/05/25 07:20:47;;;;;;;21.77;17.08;;;24.90;99.90;;;;;;5046947;28;20049;-78
2023/05/25 07:23:15;;;;;;;23.13;16.33;;;25.00;99.90;;;;;;5039824;28;20055;-75
2023/05/25 07:25:43;;;;;;;21.00;17.10;;;24.90;99.90;;;;;;5021993;28;20045;-77
2023/05/25 07:28:10;;;;;;;23.30;17.55;;;25.10;99.30;;;;;;5040776;28;20120;-75
2023/05/25 07:30:38;;;;;;;30.88;18.08;;;25.30;98.10;;;;;;5037136;28;20045;-76
2023/05/25 07:33:06;;;;;;;26.10;19.05;;;25.30;96.80;;;;;;5037215;28;20048;-77
2023/05/25 07:35:34;;;;;;;28.55;23.60;;;25.20;96.90;;;;;;5037596;28;20056;-79
2023/05/25 07:38:03;;;;;;;17.20;15.10;;;25.30;95.60;;;;;;5025702;28;20148;-78
2023/05/25 07:40:31;;;;;;;25.67;20.25;;;25.20;94.90;;;;;;5036799;28;20045;-78
2023/05/25 07:42:58;;;;;;;15.98;13.10;;;25.40;94.50;;;;;;5044359;28;20040;-77
2023/05/25 07:45:26;;;;;;;13.23;11.68;;;24.70;93.60;;;;;;5046856;28;20045;-75
2023/05/25 07:47:54;;;;;;;23.05;17.30;;;24.60;94.40;;;;;;5022340;28;20514;-76
2023/05/25 07:50:23;;;;;;;24.75;16.83;;;24.70;95.80;;;;;;5009706;28;20046;-76
2023/05/25 07:52:50;;;;;;;35.00;27.30;;;24.40;98.20;;;;;;5031698;28;20072;-76
2023/05/25 07:55:19;;;;;;;31.63;23.75;;;24.60;97.20;;;;;;5011121;28;20063;-75
2023/05/25 07:57:46;;;;;;;20.75;16.30;;;24.50;97.10;;;;;;5048362;28;20037;-76
2023/05/25 08:00:14;;;;;;;21.05;17.00;;;24.60;97.30;;;;;;5044587;28;20045;-76
2023/05/25 08:02:42;;;;;;;17.10;12.63;;;24.60;97.70;;;;;;5036954;28;20038;-77
2023/05/25 08:05:11;;;;;;;16.35;13.10;;;24.60;97.60;;;;;;5035748;28;20046;-76
2023/05/25 08:07:41;;;;;;;20.02;13.98;;;24.60;96.60;;;;;;5033497;28;20084;-76
2023/05/25 08:10:10;;;;;;;19.10;14.93;;;24.20;96.70;;;;;;5046032;28;20040;-77
2023/05/25 08:12:40;;;;;;;15.75;12.55;;;24.10;97.40;;;;;;5035170;28;20425;-76
2023/05/25 08:15:08;;;;;;;25.05;15.80;;;24.20;96.10;;;;;;5003691;28;20046;-76
2023/05/25 08:17:36;;;;;;;20.10;15.10;;;24.20;97.60;;;;;;5010464;28;20041;-76
2023/05/25 08:20:05;;;;;;;19.42;14.73;;;24.40;95.90;;;;;;5039395;28;20059;-78
2023/05/25 08:22:32;;;;;;;20.45;13.65;;;24.50;94.30;;;;;;5041164;28;20037;-78
2023/05/25 08:25:05;;;;;;;15.30;12.40;;;24.60;93.30;;;;;;5036163;28;20095;-78
2023/05/25 08:27:32;;;;;;;19.00;11.57;;;24.80;92.00;;;;;;5033660;28;20048;-76
2023/05/25 08:30:00;;;;;;;21.33;16.83;;;24.60;92.00;;;;;;5020075;28;20055;-76
2023/05/25 08:32:28;;;;;;;16.63;10.40;;;24.80;91.50;;;;;;5036636;28;20061;-77
2023/05/25 08:34:55;;;;;;;17.73;13.88;;;24.70;89.10;;;;;;5037893;28;20048;-78
2023/05/25 08:37:23;;;;;;;13.48;10.65;;;24.90;87.20;;;;;;5037424;28;20100;-76
2023/05/25 08:39:51;;;;;;;11.57;9.18;;;24.80;86.80;;;;;;5019115;28;20103;-78
2023/05/25 08:42:20;;;;;;;12.75;10.07;;;24.70;87.20;;;;;;5036495;28;20055;-78
2023/05/25 08:44:52;;;;;;;15.38;10.75;;;24.20;90.00;;;;;;5023808;28;20044;-77
2023/05/25 08:47:23;;;;;;;16.63;9.50;;;24.30;90.90;;;;;;5048159;28;20044;-75
2023/05/25 08:49:51;;;;;;;11.88;8.65;;;24.30;91.30;;;;;;5021231;28;20493;-78
2023/05/25 08:52:23;;;;;;;10.05;8.43;;;24.30;91.50;;;;;;5037161;28;20506;-76
2023/05/25 08:54:53;;;;;;;10.32;8.98;;;24.10;92.30;;;;;;5019909;28;20371;-77
2023/05/25 08:57:29;;;;;;;12.98;9.00;;;24.00;93.40;;;;;;5037143;28;20045;-79
2023/05/25 09:00:07;;;;;;;12.27;9.55;;;24.00;94.20;;;;;;5038959;28;20092;-76
2023/05/25 09:02:39;;;;;;;16.65;10.90;;;24.00;94.80;;;;;;5038224;28;20039;-77
2023/05/25 09:05:08;;;;;;;13.05;10.60;;;24.30;94.50;;;;;;5028905;28;20050;-77
2023/05/25 09:07:36;;;;;;;12.35;10.57;;;24.40;93.80;;;;;;5019684;28;20076;-78
2023/05/25 09:10:04;;;;;;;12.90;9.50;;;24.50;93.60;;;;;;5038579;28;20045;-78
2023/05/25 09:12:35;;;;;;;11.35;8.82;;;24.50;93.50;;;;;;5047588;28;20041;-77
2023/05/25 09:15:02;;;;;;;16.30;9.63;;;24.50;94.10;;;;;;5033735;28;20048;-77
2023/05/25 09:17:30;;;;;;;13.38;9.20;;;24.60;94.00;;;;;;5035840;28;20050;-77
2023/05/25 09:19:59;;;;;;;12.65;9.23;;;24.80;93.30;;;;;;5035016;28;20072;-78
2023/05/25 09:22:26;;;;;;;13.82;10.07;;;24.90;93.60;;;;;;5043031;28;20502;-77
2023/05/25 09:24:54;;;;;;;10.95;8.80;;;25.10;92.80;;;;;;5048640;28;20440;-77
2023/05/25 09:27:23;;;;;;;12.32;9.02;;;25.20;92.00;;;;;;5032897;28;20049;-77
2023/05/25 09:29:52;;;;;;;14.77;11.45;;;25.10;91.20;;;;;;5032937;28;20051;-78
2023/05/25 09:32:20;;;;;;;14.10;9.65;;;25.10;92.00;;;;;;5051423;28;20098;-76
2023/05/25 09:34:48;;;;;;;10.27;8.52;;;25.10;92.00;;;;;;5051596;28;20375;-77
2023/05/25 09:37:17;;;;;;;14.98;9.30;;;25.20;90.90;;;;;;5050185;28;20090;-77
2023/05/25 09:39:46;;;;;;;12.32;9.70;;;25.20;91.10;;;;;;5050174;28;20140;-79
2023/05/25 09:42:13;;;;;;;14.75;8.80;;;25.50;91.20;;;;;;5049933;28;20132;-77
2023/05/25 09:44:42;;;;;;;12.38;8.23;;;25.80;91.00;;;;;;5050726;28;20049;-76
2023/05/25 09:47:12;;;;;;;13.73;9.10;;;26.00;90.20;;;;;;5051651;28;20051;-78
2023/05/25 09:49:40;;;;;;;13.00;9.32;;;26.10;89.40;;;;;;5049247;28;20049;-77
2023/05/25 09:52:08;;;;;;;12.55;7.93;;;26.10;89.00;;;;;;5050010;28;20072;-76
2023/05/25 09:54:37;;;;;;;10.48;8.02;;;26.00;87.90;;;;;;5049616;28;20571;-78
2023/05/25 09:57:05;;;;;;;11.75;7.53;;;25.80;88.10;;;;;;5050899;28;20065;-76
2023/05/25 09:59:33;;;;;;;11.32;7.57;;;25.40;89.30;;;;;;5031869;28;20041;-76
2023/05/25 10:02:00;;;;;;;6.85;6.05;;;25.40;90.60;;;;;;5031819;28;20040;-77
2023/05/25 10:04:30;;;;;;;10.57;5.78;;;25.50;90.60;;;;;;5032422;28;20055;-77
2023/05/25 10:06:58;;;;;;;18.30;6.57;;;25.70;89.00;;;;;;5049449;28;20132;-77
2023/05/25 10:09:28;;;;;;;15.52;8.98;;;26.10;88.70;;;;;;5050381;28;20045;-77
2023/05/25 10:11:57;;;;;;;11.23;7.13;;;26.50;86.70;;;;;;5031858;28;20037;-77
2023/05/25 10:14:28;;;;;;;11.13;6.22;;;26.60;82.70;;;;;;5051124;28;20146;-77
2023/05/25 10:16:57;;;;;;;12.25;6.15;;;26.60;82.40;;;;;;5049544;28;20484;-78
2023/05/25 10:19:32;;;;;;;9.02;6.13;;;26.60;83.40;;;;;;5049144;28;20048;-78
2023/05/25 10:22:20;;;;;;;10.38;5.60;;;26.60;80.50;;;;;;5048539;28;20588;-77
2023/05/25 10:24:55;;;;;;;10.38;5.60;;;26.90;78.40;;;;;;5056287;28;20138;-76
2023/05/25 10:27:25;;;;;;;7.85;6.03;;;26.50;77.70;;;;;;5059833;28;20709;-77
2023/05/25 10:29:53;;;;;;;9.65;6.25;;;26.60;77.60;;;;;;5054907;28;20037;-78
2023/05/25 10:32:22;;;;;;;8.30;5.40;;;26.70;77.30;;;;;;5064734;28;20148;-78
2023/05/25 10:34:52;;;;;;;6.75;4.22;;;26.80;75.60;;;;;;5048950;28;20041;-78
2023/05/25 10:37:20;;;;;;;7.40;5.15;;;26.70;73.40;;;;;;5036375;28;20037;-78
2023/05/25 10:39:49;;;;;;;8.63;4.60;;;26.60;72.10;;;;;;5035391;28;20527;-80
2023/05/25 10:42:19;;;;;;;11.68;6.90;;;26.30;71.50;;;;;;5057420;28;20103;-76
2023/05/25 10:44:47;;;;;;;56.30;40.95;;;26.10;72.60;;;;;;5054098;28;20040;-79
2023/05/25 10:47:16;;;;;;;53.55;38.60;;;25.70;70.80;;;;;;5053915;28;20053;-78
2023/05/25 10:49:57;;;;;;;9.57;8.20;;;25.50;73.00;;;;;;5055691;28;20033;-77
2023/05/25 10:52:28;;;;;;;5.15;4.25;;;25.50;71.40;;;;;;5053655;28;20049;-78
2023/05/25 10:54:56;;;;;;;195.23;135.75;;;25.60;70.70;;;;;;5032335;28;20044;-78
2023/05/25 10:57:26;;;;;;;9.40;5.38;;;25.90;70.40;;;;;;5054056;28;20094;-79
2023/05/25 10:59:58;;;;;;;6.75;4.50;;;25.90;69.00;;;;;;5035175;28;20037;-79
2023/05/25 11:02:28;;;;;;;36.83;24.48;;;26.00;69.40;;;;;;5055426;28;20107;-80
2023/05/25 11:05:32;;;;;;;9.30;4.97;;;26.20;66.90;;;;;;5055766;28;20208;-78
2023/05/25 11:08:00;;;;;;;12.18;7.05;;;26.50;66.80;;;;;;5062972;28;20079;-77
2023/05/25 11:10:43;;;;;;;6.82;5.78;;;26.90;66.50;;;;;;5053010;28;20588;-76
2023/05/25 11:13:24;;;;;;;10.73;5.65;;;27.00;65.90;;;;;;5041825;28;20036;-77
2023/05/25 11:16:17;;;;;;;7.45;3.85;;;27.00;64.70;;;;;;5051467;28;20029;-78
2023/05/25 11:18:46;;;;;;;5.45;3.78;;;26.40;62.90;;;;;;5034522;28;20049;-80
2023/05/25 11:21:23;;;;;;;7.22;3.95;;;25.90;63.80;;;;;;5023676;28;20042;-78
2023/05/25 11:23:55;;;;;;;7.13;4.05;;;25.60;65.50;;;;;;5022406;28;20049;-78
2023/05/25 11:26:23;;;;;;;5.07;4.57;;;25.40;66.30;;;;;;5010886;28;20072;-78
2023/05/25 11:28:52;;;;;;;5.93;4.72;;;25.30;66.70;;;;;;5023064;28;20041;-77
2023/05/25 11:31:29;;;;;;;6.05;3.95;;;25.10;66.80;;;;;;5008945;28;20050;-78
2023/05/25 11:33:57;;;;;;;7.53;5.00;;;25.30;67.30;;;;;;5031566;28;20065;-78
2023/05/25 11:36:30;;;;;;;7.00;4.50;;;25.50;66.60;;;;;;5044126;28;20532;-79
2023/05/25 11:39:00;;;;;;;6.25;4.20;;;25.80;66.30;;;;;;5038630;28;20045;-78
2023/05/25 11:41:28;;;;;;;5.47;4.35;;;26.10;66.00;;;;;;5029951;28;20041;-76
2023/05/25 11:44:02;;;;;;;4.93;3.53;;;26.20;66.60;;;;;;5028846;28;20046;-77
2023/05/25 11:46:32;;;;;;;6.38;3.88;;;26.30;62.30;;;;;;5012309;28;20038;-77
2023/05/25 11:49:00;;;;;;;5.35;3.70;;;26.40;62.50;;;;;;5031363;28;20049;-81
2023/05/25 11:51:30;;;;;;;7.78;3.70;;;26.40;61.40;;;;;;5030084;28;20045;-77
2023/05/25 11:53:58;;;;;;;5.05;3.75;;;26.50;59.70;;;;;;5028485;28;20524;-78
2023/05/25 11:56:26;;;;;;;9.55;4.53;;;26.50;62.50;;;;;;5027504;28;20088;-78
2023/05/25 11:58:53;;;;;;;11.30;4.35;;;26.50;64.80;;;;;;5026734;28;20088;-76
2023/05/25 12:01:22;;;;;;;4.95;3.67;;;26.40;66.10;;;;;;5027102;28;20042;-78
2023/05/25 12:03:51;;;;;;;11.02;4.00;;;26.20;67.30;;;;;;5026023;28;20133;-77
2023/05/25 12:06:26;;;;;;;7.70;4.30;;;25.90;68.70;;;;;;5027055;28;20516;-75
2023/05/25 12:08:55;;;;;;;6.70;4.50;;;25.70;67.40;;;;;;5027050;28;20042;-77
2023/05/25 12:11:30;;;;;;;6.15;4.22;;;25.70;67.60;;;;;;5028264;28;20297;-77
2023/05/25 12:13:58;;;;;;;6.47;4.18;;;25.50;68.00;;;;;;5029886;28;20076;-77
2023/05/25 12:16:26;;;;;;;8.77;5.35;;;25.40;69.90;;;;;;5028455;28;20458;-78
2023/05/25 12:18:54;;;;;;;11.13;7.78;;;25.30;71.10;;;;;;5027379;28;20124;-76
2023/05/25 12:21:23;;;;;;;8.63;4.00;;;25.40;71.60;;;;;;5028878;28;20041;-77
2023/05/25 12:23:53;;;;;;;13.52;9.52;;;25.40;68.10;;;;;;5032849;28;20051;-78
2023/05/25 12:26:22;;;;;;;8.10;6.43;;;25.20;69.70;;;;;;5044998;28;20400;-78
2023/05/25 12:29:00;;;;;;;7.10;4.10;;;25.10;69.10;;;;;;5046063;28;20048;-80
2023/05/25 12:31:29;;;;;;;11.68;9.15;;;25.00;68.20;;;;;;5047063;28;20041;-78
2023/05/25 12:34:09;;;;;;;13.57;9.20;;;24.90;69.30;;;;;;5047131;28;20124;-79
2023/05/25 12:36:38;;;;;;;6.45;4.55;;;24.90;70.80;;;;;;5046348;28;20041;-79
2023/05/25 12:39:06;;;;;;;6.65;4.78;;;25.20;69.60;;;;;;5046429;28;20044;-78
2023/05/25 12:41:44;;;;;;;9.25;5.35;;;25.20;68.50;;;;;;5029727;28;20040;-78